createdAt,value
2023-04-12T00:01:22.587Z,0
2023-04-12T00:04:47.910Z,0
2023-04-12T00:08:13.056Z,0
2023-04-12T00:11:38.283Z,0
2023-04-12T00:15:03.754Z,0
2023-04-12T00:18:28.721Z,0
2023-04-12T00:21:53.934Z,0
2023-04-12T00:25:19.141Z,0
2023-04-12T00:28:44.417Z,0
2023-04-12T00:32:09.657Z,0
2023-04-12T00:35:34.898Z,0
2023-04-12T00:39:00.080Z,0
2023-04-12T00:42:25.317Z,0
2023-04-12T00:45:50.533Z,0
2023-04-12T00:49:15.793Z,0
2023-04-12T00:52:41.023Z,0
2023-04-12T00:56:06.242Z,0
2023-04-12T00:59:31.454Z,0
2023-04-12T01:02:56.741Z,0
2023-04-12T01:06:21.932Z,0
2023-04-12T01:09:47.126Z,0
2023-04-12T01:13:12.340Z,0
2023-04-12T01:16:37.601Z,0
2023-04-12T01:20:03.737Z,0
2023-04-12T01:23:28.054Z,0
2023-04-12T01:26:53.225Z,0
2023-04-12T01:30:18.499Z,0
2023-04-12T01:33:43.702Z,0
2023-04-12T01:37:08.908Z,0
2023-04-12T01:40:34.115Z,0
2023-04-12T01:43:59.453Z,0
2023-04-12T01:47:24.536Z,0
2023-04-12T01:50:49.756Z,0
2023-04-12T01:54:14.953Z,0
2023-04-12T01:57:40.151Z,0
2023-04-12T02:01:05.420Z,0
2023-04-12T02:04:30.564Z,0
2023-04-12T02:07:55.802Z,0
2023-04-12T02:11:21.030Z,0
2023-04-12T02:14:46.274Z,0
2023-04-12T02:18:11.467Z,0
2023-04-12T02:21:36.652Z,0
2023-04-12T02:25:01.948Z,0
2023-04-12T02:28:27.127Z,0
2023-04-12T02:31:52.340Z,0
2023-04-12T02:35:17.526Z,0
2023-04-12T02:38:42.710Z,0
2023-04-12T02:42:07.946Z,0
2023-04-12T02:45:33.147Z,0
2023-04-12T02:48:58.395Z,0
2023-04-12T02:52:23.577Z,0
2023-04-12T02:55:48.800Z,0
2023-04-12T02:59:13.997Z,0
2023-04-12T03:02:39.309Z,0
2023-04-12T03:06:04.552Z,0
2023-04-12T03:09:29.624Z,0
2023-04-12T03:12:54.824Z,0
2023-04-12T03:16:20.048Z,0
2023-04-12T03:19:45.224Z,0
2023-04-12T03:23:10.469Z,0
2023-04-12T03:26:35.651Z,0
2023-04-12T03:30:00.902Z,0
2023-04-12T03:33:26.067Z,0
2023-04-12T03:36:51.285Z,0
2023-04-12T03:40:17.256Z,0
2023-04-12T03:43:42.045Z,0
2023-04-12T03:47:07.308Z,0
2023-04-12T03:50:32.497Z,0
2023-04-12T03:53:57.822Z,0
2023-04-12T03:57:22.942Z,0
2023-04-12T04:00:48.150Z,0
2023-04-12T04:04:13.522Z,0
2023-04-12T04:07:38.582Z,0
2023-04-12T04:11:03.796Z,0
2023-04-12T04:14:29.006Z,0
2023-04-12T04:17:54.220Z,0
2023-04-12T04:21:19.390Z,0
2023-04-12T04:24:44.695Z,0
2023-04-12T04:28:09.926Z,0
2023-04-12T04:31:35.176Z,0
2023-04-12T04:35:00.420Z,0
2023-04-12T04:38:25.674Z,0
2023-04-12T04:41:50.854Z,0
2023-04-12T04:45:16.095Z,0
2023-04-12T04:48:41.329Z,0
2023-04-12T04:52:06.516Z,0
2023-04-12T04:55:31.801Z,0
2023-04-12T04:58:57.340Z,0
2023-04-12T05:02:22.239Z,0
2023-04-12T05:05:47.469Z,0
2023-04-12T05:09:12.657Z,0
2023-04-12T05:12:37.876Z,0
2023-04-12T05:16:03.103Z,0
2023-04-12T05:19:28.337Z,0
2023-04-12T05:22:53.582Z,0
2023-04-12T05:26:18.737Z,0
2023-04-12T05:29:43.957Z,0
2023-04-12T05:33:09.154Z,0
2023-04-12T05:36:34.372Z,6
2023-04-12T05:39:59.626Z,6
2023-04-12T05:43:24.815Z,11
2023-04-12T05:46:50.098Z,11
2023-04-12T05:50:15.395Z,11
2023-04-12T05:53:40.603Z,11
2023-04-12T05:57:05.947Z,11
2023-04-12T06:00:31.014Z,11
2023-04-12T06:03:56.305Z,11
2023-04-12T06:07:21.459Z,17
2023-04-12T06:10:46.612Z,23
2023-04-12T06:14:12.051Z,17
2023-04-12T06:17:37.048Z,23
2023-04-12T06:21:02.312Z,23
2023-04-12T06:24:27.480Z,23
2023-04-12T06:27:52.683Z,28
2023-04-12T06:31:18.026Z,28
2023-04-12T06:34:43.103Z,34
2023-04-12T06:38:08.303Z,34
2023-04-12T06:41:33.508Z,34
2023-04-12T06:44:58.702Z,34
2023-04-12T06:48:23.952Z,34
2023-04-12T06:51:49.177Z,28
2023-04-12T06:55:14.425Z,28
2023-04-12T06:58:39.633Z,28
2023-04-12T07:02:04.879Z,23
2023-04-12T07:05:30.129Z,23
2023-04-12T07:08:55.452Z,28
2023-04-12T07:12:20.484Z,28
2023-04-12T07:15:45.688Z,28
2023-04-12T07:19:10.926Z,28
2023-04-12T07:22:36.142Z,28
2023-04-12T07:26:01.474Z,28
2023-04-12T07:29:26.569Z,34
2023-04-12T07:32:51.829Z,28
2023-04-12T07:36:16.978Z,34
2023-04-12T07:39:42.367Z,28
2023-04-12T07:43:07.372Z,28
2023-04-12T07:46:32.641Z,34
2023-04-12T07:49:57.772Z,34
2023-04-12T07:53:23.629Z,34
2023-04-12T07:56:51.003Z,34
2023-04-12T08:00:15.537Z,34
2023-04-12T08:03:40.993Z,39
2023-04-12T08:07:06.088Z,39
2023-04-12T08:10:31.320Z,34
2023-04-12T08:13:56.807Z,34
2023-04-12T08:17:21.835Z,34
2023-04-12T08:20:46.977Z,34
2023-04-12T08:24:12.159Z,28
2023-04-12T08:27:37.384Z,28
2023-04-12T08:31:02.731Z,28
2023-04-12T08:34:27.801Z,28
2023-04-12T08:37:53.029Z,34
2023-04-12T08:41:18.266Z,34
2023-04-12T08:44:43.648Z,34
2023-04-12T08:48:08.951Z,34
2023-04-12T08:51:34.101Z,39
2023-04-12T08:54:59.325Z,45
2023-04-12T08:58:24.585Z,39
2023-04-12T09:01:49.877Z,39
2023-04-12T09:05:15.121Z,39
2023-04-12T09:08:40.287Z,39
2023-04-12T09:12:05.594Z,39
2023-04-12T09:15:30.877Z,39
2023-04-12T09:18:56.370Z,28
2023-04-12T09:22:21.400Z,28
2023-04-12T09:25:46.599Z,28
2023-04-12T09:29:11.873Z,28
2023-04-12T09:32:37.128Z,23
2023-04-12T09:36:02.383Z,28
2023-04-12T09:39:27.658Z,28
2023-04-12T09:42:52.944Z,28
2023-04-12T09:46:18.247Z,23
2023-04-12T09:49:43.558Z,17
2023-04-12T09:53:08.749Z,11
2023-04-12T09:56:34.040Z,23
2023-04-12T09:59:59.196Z,23
2023-04-12T10:03:24.493Z,23
2023-04-12T10:06:49.637Z,23
2023-04-12T10:10:14.882Z,17
2023-04-12T10:13:40.299Z,17
2023-04-12T10:17:05.421Z,17
2023-04-12T10:20:30.663Z,17
2023-04-12T10:23:55.983Z,17
2023-04-12T10:27:21.208Z,17
2023-04-12T10:30:46.493Z,17
2023-04-12T10:34:11.727Z,11
2023-04-12T10:37:36.972Z,17
2023-04-12T10:41:02.226Z,17
2023-04-12T10:44:27.437Z,11
2023-04-12T10:47:52.753Z,17
2023-04-12T10:51:18.186Z,17
2023-04-12T10:54:43.245Z,17
2023-04-12T10:58:08.489Z,17
2023-04-12T11:01:35.335Z,17
2023-04-12T11:04:59.001Z,17
2023-04-12T11:08:24.241Z,17
2023-04-12T11:11:49.459Z,17
2023-04-12T11:15:14.746Z,17
2023-04-12T11:18:40.083Z,17
2023-04-12T11:22:05.322Z,17
2023-04-12T11:25:30.490Z,23
2023-04-12T11:28:55.934Z,28
2023-04-12T11:32:21.073Z,34
2023-04-12T11:35:46.217Z,39
2023-04-12T11:39:11.521Z,23
2023-04-12T11:42:36.667Z,17
2023-04-12T11:46:01.921Z,34
2023-04-12T11:49:27.112Z,34
2023-04-12T11:52:52.321Z,34
2023-04-12T11:56:17.552Z,39
2023-04-12T11:59:42.721Z,51
2023-04-12T12:03:08.670Z,45
2023-04-12T12:06:33.540Z,39
2023-04-12T12:09:58.402Z,39
2023-04-12T12:13:23.708Z,45
2023-04-12T12:16:48.807Z,56
2023-04-12T12:20:14.016Z,51
2023-04-12T12:23:39.223Z,39
2023-04-12T12:27:04.422Z,39
2023-04-12T12:30:29.681Z,45
2023-04-12T12:33:54.836Z,39
2023-04-12T12:37:20.120Z,45
2023-04-12T12:40:45.351Z,51
2023-04-12T12:44:10.583Z,34
2023-04-12T12:47:35.906Z,28
2023-04-12T12:51:01.064Z,34
2023-04-12T12:58:05.833Z,45
2023-04-12T13:01:16.772Z,56
2023-04-12T13:04:42.195Z,56
2023-04-12T13:08:07.306Z,62
2023-04-12T13:11:32.573Z,51
2023-04-12T13:15:06.849Z,56
2023-04-12T13:18:23.121Z,56
2023-04-12T13:21:48.983Z,45
2023-04-12T13:25:13.720Z,45
2023-04-12T13:28:38.989Z,28
2023-04-12T13:32:04.347Z,23
2023-04-12T13:35:29.497Z,17
2023-04-12T13:38:54.813Z,28
2023-04-12T13:42:20.067Z,28
2023-04-12T13:45:45.312Z,11
2023-04-12T13:49:10.580Z,6
2023-04-12T13:52:35.781Z,11
2023-04-12T13:56:01.181Z,11
2023-04-12T13:59:26.322Z,11
2023-04-12T14:02:51.703Z,11
2023-04-12T14:06:16.767Z,6
2023-04-12T14:09:42.024Z,6
2023-04-12T14:13:07.276Z,6
2023-04-12T15:55:39.635Z,0
2023-04-12T15:59:04.864Z,0
2023-04-12T16:02:30.342Z,0
2023-04-12T16:05:55.408Z,0
2023-04-12T16:09:20.616Z,0
2023-04-12T16:12:45.862Z,0
2023-04-12T16:16:11.137Z,0
2023-04-12T16:19:36.316Z,0
2023-04-12T16:23:01.563Z,0
2023-04-12T16:26:26.771Z,0
2023-04-12T16:29:52.070Z,6
2023-04-12T16:33:17.310Z,0
2023-04-12T16:36:42.546Z,6
2023-04-12T16:40:07.836Z,0
2023-04-12T16:43:33.085Z,6
2023-04-12T16:46:58.459Z,11
2023-04-12T16:50:24.373Z,0
2023-04-12T16:53:48.787Z,0
2023-04-12T16:57:14.039Z,0
2023-04-12T17:00:39.247Z,0
2023-04-12T17:04:31.452Z,0
2023-04-12T17:07:56.624Z,0
2023-04-12T17:11:21.849Z,0
2023-04-12T17:14:47.033Z,0
2023-04-12T17:18:12.220Z,0
2023-04-12T17:21:37.472Z,0
2023-04-12T17:25:02.791Z,0
2023-04-12T17:28:28.002Z,0
2023-04-12T17:31:54.396Z,0
2023-04-12T17:35:18.585Z,0
2023-04-12T17:38:43.784Z,0
2023-04-12T17:42:08.979Z,0
2023-04-12T17:45:34.325Z,0
2023-04-12T17:48:59.880Z,0
2023-04-12T17:52:24.848Z,0
2023-04-12T17:55:50.788Z,0
2023-04-12T17:59:15.305Z,0
2023-04-12T18:02:40.665Z,0
2023-04-12T18:06:05.743Z,0
2023-04-12T18:09:31.009Z,0
2023-04-12T18:12:56.227Z,0
2023-04-12T18:16:21.430Z,0
2023-04-12T18:19:46.658Z,0
2023-04-12T18:23:11.877Z,0
2023-04-12T18:26:37.083Z,0
2023-04-12T18:30:02.436Z,0
2023-04-12T18:33:27.580Z,0
2023-04-12T18:36:52.777Z,0
2023-04-12T18:40:17.978Z,0
2023-04-12T18:43:43.188Z,0
2023-04-12T18:47:08.525Z,0
2023-04-12T18:50:33.698Z,0
2023-04-12T18:53:59.017Z,0
2023-04-12T18:57:24.148Z,0
2023-04-12T19:00:49.367Z,0
2023-04-12T19:04:14.640Z,0
2023-04-12T19:07:39.756Z,0
2023-04-12T19:11:04.949Z,0
2023-04-12T19:14:30.240Z,0
2023-04-12T19:17:55.507Z,0
2023-04-12T19:21:20.765Z,0
2023-04-12T19:24:45.974Z,0
2023-04-12T19:28:11.231Z,0
2023-04-12T19:31:36.413Z,0
2023-04-12T19:35:01.669Z,0
2023-04-12T19:38:26.938Z,0
2023-04-12T19:41:52.118Z,0
2023-04-12T19:45:17.454Z,0
2023-04-12T19:48:42.780Z,0
2023-04-12T19:52:07.866Z,0
2023-04-12T19:55:33.045Z,0
2023-04-12T19:58:58.349Z,0
2023-04-12T20:02:23.401Z,0
2023-04-12T20:05:48.557Z,0
2023-04-12T20:09:13.978Z,0
2023-04-12T20:12:38.942Z,0
2023-04-12T20:16:04.076Z,0
2023-04-12T20:19:29.235Z,0
2023-04-12T20:22:54.404Z,0
2023-04-12T20:26:19.612Z,0
2023-04-12T20:29:44.833Z,0
2023-04-12T20:33:09.998Z,0
2023-04-12T20:36:35.131Z,0
2023-04-12T20:40:00.318Z,0
2023-04-12T20:43:25.462Z,0
2023-04-12T20:46:50.665Z,0
2023-04-12T20:50:15.814Z,0
2023-04-12T20:53:40.975Z,0
2023-04-12T20:57:06.110Z,0
2023-04-12T21:00:31.278Z,0
2023-04-12T21:03:56.528Z,0
2023-04-12T21:07:21.642Z,0
2023-04-12T21:10:46.805Z,0
2023-04-12T21:14:12.006Z,0
2023-04-12T21:17:37.185Z,0
2023-04-12T21:21:02.396Z,0
2023-04-12T21:24:27.514Z,0
2023-04-12T21:27:52.680Z,0
2023-04-12T21:31:17.911Z,0
2023-04-12T21:34:43.061Z,0
2023-04-12T21:38:08.274Z,0
2023-04-12T21:41:33.470Z,0
2023-04-12T21:44:58.653Z,0
2023-04-12T21:48:23.816Z,0
2023-04-12T21:51:48.982Z,0
2023-04-12T21:55:14.191Z,0
2023-04-12T21:58:39.319Z,0
2023-04-12T22:02:04.565Z,0
2023-04-12T22:05:29.707Z,0
2023-04-12T22:08:54.905Z,0
2023-04-12T22:12:20.115Z,0
2023-04-12T22:15:45.262Z,0
2023-04-12T22:19:10.478Z,0
2023-04-12T22:22:35.661Z,0
2023-04-12T22:26:00.853Z,0
2023-04-12T22:29:26.071Z,0
2023-04-12T22:32:51.291Z,0
2023-04-12T22:36:16.427Z,0
2023-04-12T22:39:41.614Z,0
2023-04-12T22:43:06.778Z,0
2023-04-12T22:46:32.255Z,0
2023-04-12T22:49:57.143Z,0
2023-04-12T22:53:22.340Z,0
2023-04-12T22:56:47.514Z,0
2023-04-12T23:00:14.901Z,0
2023-04-12T23:03:37.894Z,0
2023-04-12T23:07:03.030Z,0
2023-04-12T23:10:28.216Z,0
2023-04-12T23:13:53.393Z,0
2023-04-12T23:17:18.561Z,0
2023-04-12T23:20:43.762Z,0
2023-04-12T23:24:08.920Z,0
2023-04-12T23:27:34.081Z,0
2023-04-12T23:30:59.246Z,0
2023-04-12T23:34:24.427Z,0
2023-04-12T23:37:49.716Z,0
2023-04-12T23:41:14.805Z,0
2023-04-12T23:44:39.986Z,0
2023-04-12T23:48:05.218Z,0
2023-04-12T23:51:30.337Z,0
2023-04-12T23:54:55.552Z,0
2023-04-12T23:58:20.723Z,0
